Time;durP1;ratioP1;P1;durP2;ratioP2;P2;SDS_P1;SDS_P2;PMS_P1;PMS_P2;Temp;Humidity;BMP_temperature;BMP_pressure;BME280_temperature;BME280_humidity;BME280_pressure;Samples;Min_cycle;Max_cycle;Signal;HPM_P1;HPM_P2
2022/08/22 00:01:40;;;;;;;3.92;1.27;;;;;;;24.41;40.66;100274.44;9813546;29;65619;-65
2022/08/22 00:06:36;;;;;;;2.50;1.38;;;;;;;24.40;40.50;100279.16;9813286;29;66366;-65
2022/08/22 00:11:33;;;;;;;5.35;1.42;;;;;;;24.36;40.91;100283.78;9812576;29;66464;-65
2022/08/22 00:16:30;;;;;;;2.95;1.40;;;;;;;24.32;40.89;100280.06;9811011;29;64227;-65
2022/08/22 00:21:24;;;;;;;2.45;1.35;;;;;;;24.28;40.94;100288.25;9816022;29;66546;-65
2022/08/22 00:26:21;;;;;;;3.10;1.17;;;;;;;24.25;41.22;100277.84;9815947;29;65595;-65
2022/08/22 00:31:18;;;;;;;2.85;1.38;;;;;;;24.23;41.36;100276.59;9817111;29;66359;-65
2022/08/22 00:36:16;;;;;;;2.35;1.27;;;;;;;24.20;41.41;100278.06;9817808;29;66353;-65
2022/08/22 00:41:15;;;;;;;2.08;1.20;;;;;;;24.15;41.76;100272.72;9818535;29;66216;-65
2022/08/22 00:46:18;;;;;;;4.07;1.25;;;;;;;24.17;41.82;100281.47;9816612;29;66636;-63
2022/08/22 00:51:32;;;;;;;1.67;1.20;;;;;;;24.08;41.92;100275.25;9817656;29;66568;-65
2022/08/22 00:56:45;;;;;;;2.65;1.30;;;;;;;24.06;41.67;100273.94;9816117;29;65599;-62
2022/08/22 01:01:41;;;;;;;1.58;1.00;;;;;;;23.96;41.96;100272.41;9818710;29;65585;-66
2022/08/22 01:06:40;;;;;;;3.20;1.52;;;;;;;23.96;41.96;100275.97;9817986;29;66312;-63
2022/08/22 01:11:59;;;;;;;1.88;1.05;;;;;;;23.97;41.98;100279.56;9817003;29;66823;-63
2022/08/22 01:17:01;;;;;;;2.78;1.27;;;;;;;23.94;41.78;100274.69;9815694;29;65621;-63
2022/08/22 01:22:14;;;;;;;3.10;1.50;;;;;;;23.92;41.92;100263.16;9816936;29;65725;-65
2022/08/22 01:27:44;;;;;;;3.50;1.50;;;;;;;23.89;42.10;100264.66;9816906;29;66387;-63
2022/08/22 01:32:58;;;;;;;3.88;1.40;;;;;;;23.87;41.86;100264.16;9803200;29;66490;-63
2022/08/22 01:38:08;;;;;;;2.85;1.30;;;;;;;23.86;41.93;100261.75;9815690;29;66132;-63
2022/08/22 01:43:09;;;;;;;2.25;1.17;;;;;;;23.84;42.15;100261.28;9815984;29;66405;-63
2022/08/22 01:48:07;;;;;;;2.50;1.17;;;;;;;23.80;41.99;100257.56;9815809;29;66345;-63
2022/08/22 01:53:04;;;;;;;1.50;1.00;;;;;;;23.80;42.05;100255.59;9815888;29;65587;-63
2022/08/22 01:57:58;;;;;;;4.43;1.50;;;;;;;23.75;42.07;100253.03;9814367;29;66420;-64
2022/08/22 02:03:01;;;;;;;2.58;1.38;;;;;;;23.66;42.27;100255.06;9814609;29;66542;-63
2022/08/22 02:07:56;;;;;;;2.42;1.25;;;;;;;23.72;42.24;100252.91;9815266;29;65888;-63
2022/08/22 02:12:55;;;;;;;2.15;1.17;;;;;;;23.70;42.55;100249.69;9814807;29;66361;-63
2022/08/22 02:18:00;;;;;;;2.45;1.20;;;;;;;23.69;42.60;100250.81;9812256;29;66419;-64
2022/08/22 02:22:54;;;;;;;2.38;1.02;;;;;;;23.70;42.26;100260.75;9815351;29;65624;-63
2022/08/22 02:27:52;;;;;;;3.47;1.38;;;;;;;23.62;42.60;100256.91;9813893;29;65489;-64
2022/08/22 02:32:51;;;;;;;2.78;1.25;;;;;;;23.63;42.46;100252.19;9814228;29;65620;-64
2022/08/22 02:37:48;;;;;;;3.15;1.67;;;;;;;23.57;42.67;100246.00;9815331;29;66340;-64
2022/08/22 02:42:43;;;;;;;1.73;1.20;;;;;;;23.55;42.76;100254.69;9814860;29;65487;-64
2022/08/22 02:47:40;;;;;;;1.92;1.20;;;;;;;23.53;42.91;100256.16;9813982;29;66321;-64
2022/08/22 02:52:34;;;;;;;2.47;1.27;;;;;;;23.52;42.91;100251.75;9818679;29;67554;-64
2022/08/22 02:57:30;;;;;;;3.30;1.58;;;;;;;23.48;43.13;100254.41;9813186;29;66326;-64
2022/08/22 03:02:26;;;;;;;2.53;1.50;;;;;;;23.43;42.97;100253.75;9815932;29;67599;-64
2022/08/22 03:07:31;;;;;;;2.30;1.50;;;;;;;23.43;43.19;100253.75;9814105;29;65280;-64
2022/08/22 03:12:26;;;;;;;1.52;1.20;;;;;;;23.40;43.29;100255.25;9813411;29;65408;-64
2022/08/22 03:17:21;;;;;;;2.63;1.08;;;;;;;23.36;43.29;100250.72;9813837;29;66140;-64
2022/08/22 03:22:16;;;;;;;2.58;1.20;;;;;;;23.31;43.42;100245.38;9813719;29;66353;-64
2022/08/22 03:27:11;;;;;;;2.35;1.17;;;;;;;23.34;43.23;100242.75;9813870;29;66359;-64
2022/08/22 03:32:09;;;;;;;1.65;1.13;;;;;;;23.27;42.90;100238.91;9813418;29;65815;-64
2022/08/22 03:37:15;;;;;;;3.40;1.02;;;;;;;23.32;42.67;100242.28;9812286;29;65474;-64
2022/08/22 03:42:23;;;;;;;2.40;1.30;;;;;;;23.29;42.51;100244.91;9777331;29;65654;-64
2022/08/22 03:47:37;;;;;;;3.17;1.13;;;;;;;23.27;42.81;100249.97;9811821;29;65591;-64
2022/08/22 03:53:08;;;;;;;1.98;1.13;;;;;;;23.25;43.09;100253.06;9811848;29;66455;-64
2022/08/22 03:58:28;;;;;;;3.38;1.25;;;;;;;23.18;43.16;100258.31;9795490;29;66021;-64
2022/08/22 04:03:30;;;;;;;2.30;1.27;;;;;;;23.14;43.19;100265.66;9811460;29;65476;-64
2022/08/22 04:08:40;;;;;;;3.08;1.50;;;;;;;23.08;43.25;100267.00;9812451;29;66305;-64
2022/08/22 04:14:06;;;;;;;3.08;1.50;;;;;;;23.07;43.54;100268.13;9813173;29;66299;-64
2022/08/22 04:19:21;;;;;;;1.92;1.45;;;;;;;23.08;43.33;100275.28;9811627;29;66640;-64
2022/08/22 04:24:29;;;;;;;1.65;1.27;;;;;;;23.08;43.57;100275.28;9799580;29;65552;-64
2022/08/22 04:29:24;;;;;;;3.10;1.50;;;;;;;23.12;43.33;100273.50;9810413;29;66217;-64
2022/08/22 04:34:19;;;;;;;2.70;1.40;;;;;;;23.07;43.50;100270.91;9810502;29;66351;-64
2022/08/22 04:39:17;;;;;;;2.63;1.10;;;;;;;23.07;43.67;100270.91;9810387;29;65670;-64
2022/08/22 04:44:12;;;;;;;4.78;1.60;;;;;;;23.17;43.57;100274.09;9811884;29;66460;-64
2022/08/22 04:49:07;;;;;;;2.33;1.20;;;;;;;23.17;43.19;100274.09;9811341;29;65649;-64
2022/08/22 04:54:12;;;;;;;2.63;1.48;;;;;;;23.29;43.05;100273.38;9811675;29;66018;-64
2022/08/22 04:59:08;;;;;;;3.63;1.52;;;;;;;23.28;43.13;100280.03;9811378;29;66347;-64
2022/08/22 05:04:02;;;;;;;4.05;1.50;;;;;;;23.25;43.33;100283.50;9810292;29;66974;-64
2022/08/22 05:08:56;;;;;;;3.67;1.48;;;;;;;23.25;43.16;100293.75;9817240;29;66423;-64
2022/08/22 05:13:50;;;;;;;3.22;1.50;;;;;;;23.24;43.51;100292.94;9818328;29;66476;-64
2022/08/22 05:18:44;;;;;;;4.10;1.83;;;;;;;23.31;43.54;100307.06;9816783;29;65426;-64
2022/08/22 05:23:37;;;;;;;6.93;1.73;;;;;;;23.41;43.24;100297.56;9816435;29;65607;-64
2022/08/22 05:28:34;;;;;;;2.60;1.35;;;;;;;22.87;44.19;100294.59;9813173;28;66314;-64
2022/08/22 05:33:27;;;;;;;2.10;1.38;;;;;;;22.73;44.84;100303.09;9815864;29;65957;-64
2022/08/22 05:38:21;;;;;;;5.35;1.60;;;;;;;22.73;44.69;100299.50;9815523;29;65488;-64
2022/08/22 05:43:13;;;;;;;2.42;1.20;;;;;;;22.64;44.62;100296.75;9816543;29;66398;-64
